sensor_id;sensor_type;location;lat;lon;timestamp;P1;durP1;ratioP1;P2;durP2;ratioP2
5173;SDS011;2606;50.934;6.934;2023-01-13T00:00:48;0.50;;;0.40;;
5173;SDS011;2606;50.934;6.934;2023-01-13T00:03:14;0.77;;;0.50;;
5173;SDS011;2606;50.934;6.934;2023-01-13T00:05:40;0.40;;;0.30;;
5173;SDS011;2606;50.934;6.934;2023-01-13T00:08:05;1.10;;;0.50;;
5173;SDS011;2606;50.934;6.934;2023-01-13T00:10:34;0.80;;;0.40;;
5173;SDS011;2606;50.934;6.934;2023-01-13T00:13:02;0.60;;;0.50;;
5173;SDS011;2606;50.934;6.934;2023-01-13T00:15:28;0.60;;;0.50;;
5173;SDS011;2606;50.934;6.934;2023-01-13T00:17:54;0.60;;;0.40;;
5173;SDS011;2606;50.934;6.934;2023-01-13T00:20:20;0.50;;;0.47;;
5173;SDS011;2606;50.934;6.934;2023-01-13T00:22:46;0.50;;;0.40;;
5173;SDS011;2606;50.934;6.934;2023-01-13T00:25:11;0.70;;;0.50;;
5173;SDS011;2606;50.934;6.934;2023-01-13T00:27:37;0.50;;;0.50;;
5173;SDS011;2606;50.934;6.934;2023-01-13T00:30:03;1.47;;;0.63;;
5173;SDS011;2606;50.934;6.934;2023-01-13T00:32:31;0.90;;;0.80;;
5173;SDS011;2606;50.934;6.934;2023-01-13T00:34:57;1.10;;;0.50;;
5173;SDS011;2606;50.934;6.934;2023-01-13T00:37:23;0.77;;;0.50;;
5173;SDS011;2606;50.934;6.934;2023-01-13T00:39:50;1.80;;;0.50;;
5173;SDS011;2606;50.934;6.934;2023-01-13T00:42:16;0.50;;;0.43;;
5173;SDS011;2606;50.934;6.934;2023-01-13T00:45:00;1.10;;;0.50;;
5173;SDS011;2606;50.934;6.934;2023-01-13T00:47:26;0.70;;;0.53;;
5173;SDS011;2606;50.934;6.934;2023-01-13T00:49:51;2.53;;;0.50;;
5173;SDS011;2606;50.934;6.934;2023-01-13T00:52:17;0.80;;;0.57;;
5173;SDS011;2606;50.934;6.934;2023-01-13T00:54:43;0.97;;;0.77;;
5173;SDS011;2606;50.934;6.934;2023-01-13T00:57:08;1.30;;;0.60;;
5173;SDS011;2606;50.934;6.934;2023-01-13T00:59:34;1.90;;;0.60;;
5173;SDS011;2606;50.934;6.934;2023-01-13T01:02:00;1.03;;;0.60;;
5173;SDS011;2606;50.934;6.934;2023-01-13T01:04:25;1.27;;;0.70;;
5173;SDS011;2606;50.934;6.934;2023-01-13T01:06:51;1.00;;;0.60;;
5173;SDS011;2606;50.934;6.934;2023-01-13T01:09:16;2.30;;;0.60;;
5173;SDS011;2606;50.934;6.934;2023-01-13T01:11:42;1.07;;;0.40;;
5173;SDS011;2606;50.934;6.934;2023-01-13T01:14:09;1.23;;;0.60;;
5173;SDS011;2606;50.934;6.934;2023-01-13T01:16:37;0.53;;;0.40;;
5173;SDS011;2606;50.934;6.934;2023-01-13T01:19:03;0.83;;;0.60;;
5173;SDS011;2606;50.934;6.934;2023-01-13T01:21:30;0.97;;;0.60;;
5173;SDS011;2606;50.934;6.934;2023-01-13T01:23:57;1.80;;;0.50;;
5173;SDS011;2606;50.934;6.934;2023-01-13T01:26:25;0.40;;;0.40;;
5173;SDS011;2606;50.934;6.934;2023-01-13T01:28:54;0.80;;;0.50;;
5173;SDS011;2606;50.934;6.934;2023-01-13T01:31:25;1.30;;;1.17;;
5173;SDS011;2606;50.934;6.934;2023-01-13T01:33:52;0.87;;;0.50;;
5173;SDS011;2606;50.934;6.934;2023-01-13T01:36:19;4.50;;;0.80;;
5173;SDS011;2606;50.934;6.934;2023-01-13T01:38:46;3.47;;;0.63;;
5173;SDS011;2606;50.934;6.934;2023-01-13T01:41:20;2.10;;;0.50;;
5173;SDS011;2606;50.934;6.934;2023-01-13T01:46:32;1.30;;;0.53;;
5173;SDS011;2606;50.934;6.934;2023-01-13T01:49:04;1.93;;;0.73;;
5173;SDS011;2606;50.934;6.934;2023-01-13T01:51:32;2.37;;;0.50;;
5173;SDS011;2606;50.934;6.934;2023-01-13T01:54:03;5.90;;;0.80;;
5173;SDS011;2606;50.934;6.934;2023-01-13T01:56:32;2.97;;;0.77;;
5173;SDS011;2606;50.934;6.934;2023-01-13T01:58:58;0.90;;;0.70;;
5173;SDS011;2606;50.934;6.934;2023-01-13T02:01:24;0.97;;;0.50;;
5173;SDS011;2606;50.934;6.934;2023-01-13T02:03:53;6.13;;;0.90;;
5173;SDS011;2606;50.934;6.934;2023-01-13T02:06:23;2.80;;;0.50;;
5173;SDS011;2606;50.934;6.934;2023-01-13T02:08:49;2.10;;;0.80;;
5173;SDS011;2606;50.934;6.934;2023-01-13T02:11:26;1.47;;;0.80;;
5173;SDS011;2606;50.934;6.934;2023-01-13T02:14:12;1.03;;;0.60;;
5173;SDS011;2606;50.934;6.934;2023-01-13T02:16:38;1.30;;;0.50;;
5173;SDS011;2606;50.934;6.934;2023-01-13T02:21:59;1.70;;;0.63;;
5173;SDS011;2606;50.934;6.934;2023-01-13T02:30:26;0.80;;;0.50;;
5173;SDS011;2606;50.934;6.934;2023-01-13T02:35:55;1.30;;;0.70;;
5173;SDS011;2606;50.934;6.934;2023-01-13T02:38:43;3.23;;;0.73;;
5173;SDS011;2606;50.934;6.934;2023-01-13T02:41:17;3.17;;;0.87;;
5173;SDS011;2606;50.934;6.934;2023-01-13T02:44:06;2.20;;;0.60;;
5173;SDS011;2606;50.934;6.934;2023-01-13T02:46:46;1.00;;;0.50;;
5173;SDS011;2606;50.934;6.934;2023-01-13T02:49:48;5.07;;;0.80;;
5173;SDS011;2606;50.934;6.934;2023-01-13T02:52:21;2.63;;;0.80;;
5173;SDS011;2606;50.934;6.934;2023-01-13T02:54:56;0.90;;;0.70;;
5173;SDS011;2606;50.934;6.934;2023-01-13T02:57:29;1.17;;;0.80;;
5173;SDS011;2606;50.934;6.934;2023-01-13T02:59:58;1.10;;;0.50;;
5173;SDS011;2606;50.934;6.934;2023-01-13T03:02:28;1.43;;;0.70;;
5173;SDS011;2606;50.934;6.934;2023-01-13T03:04:58;2.47;;;0.63;;
5173;SDS011;2606;50.934;6.934;2023-01-13T03:10:35;1.90;;;1.07;;
5173;SDS011;2606;50.934;6.934;2023-01-13T03:21:31;4.60;;;0.90;;
5173;SDS011;2606;50.934;6.934;2023-01-13T03:24:25;1.27;;;0.73;;
5173;SDS011;2606;50.934;6.934;2023-01-13T03:29:34;3.53;;;0.80;;
5173;SDS011;2606;50.934;6.934;2023-01-13T03:32:06;9.30;;;1.90;;
5173;SDS011;2606;50.934;6.934;2023-01-13T03:34:37;4.93;;;0.80;;
5173;SDS011;2606;50.934;6.934;2023-01-13T03:37:09;3.10;;;0.67;;
5173;SDS011;2606;50.934;6.934;2023-01-13T03:39:38;6.33;;;0.80;;
5173;SDS011;2606;50.934;6.934;2023-01-13T03:42:10;8.10;;;0.77;;
5173;SDS011;2606;50.934;6.934;2023-01-13T03:44:43;3.83;;;1.40;;
5173;SDS011;2606;50.934;6.934;2023-01-13T03:47:38;3.57;;;1.40;;
5173;SDS011;2606;50.934;6.934;2023-01-13T03:50:20;8.97;;;1.30;;
5173;SDS011;2606;50.934;6.934;2023-01-13T03:52:51;4.57;;;0.90;;
5173;SDS011;2606;50.934;6.934;2023-01-13T03:55:27;3.83;;;0.80;;
5173;SDS011;2606;50.934;6.934;2023-01-13T04:00:52;5.70;;;1.20;;
5173;SDS011;2606;50.934;6.934;2023-01-13T04:03:25;6.17;;;1.10;;
5173;SDS011;2606;50.934;6.934;2023-01-13T04:06:16;12.73;;;1.27;;
5173;SDS011;2606;50.934;6.934;2023-01-13T04:08:51;4.60;;;1.57;;
5173;SDS011;2606;50.934;6.934;2023-01-13T04:11:31;4.13;;;1.03;;
5173;SDS011;2606;50.934;6.934;2023-01-13T04:14:02;6.70;;;1.00;;
5173;SDS011;2606;50.934;6.934;2023-01-13T04:16:30;7.20;;;1.13;;
5173;SDS011;2606;50.934;6.934;2023-01-13T04:18:56;4.20;;;1.10;;
5173;SDS011;2606;50.934;6.934;2023-01-13T04:21:21;7.40;;;1.40;;
5173;SDS011;2606;50.934;6.934;2023-01-13T04:23:47;9.70;;;2.10;;
5173;SDS011;2606;50.934;6.934;2023-01-13T04:26:15;6.83;;;1.20;;
5173;SDS011;2606;50.934;6.934;2023-01-13T04:28:42;1.97;;;1.10;;
5173;SDS011;2606;50.934;6.934;2023-01-13T04:31:07;9.37;;;1.70;;
5173;SDS011;2606;50.934;6.934;2023-01-13T04:33:33;13.13;;;1.63;;
5173;SDS011;2606;50.934;6.934;2023-01-13T04:35:58;12.00;;;1.80;;
5173;SDS011;2606;50.934;6.934;2023-01-13T04:38:24;2.73;;;1.00;;
5173;SDS011;2606;50.934;6.934;2023-01-13T04:40:49;14.07;;;2.63;;
5173;SDS011;2606;50.934;6.934;2023-01-13T04:43:15;4.67;;;1.13;;
5173;SDS011;2606;50.934;6.934;2023-01-13T04:45:41;6.40;;;1.37;;
5173;SDS011;2606;50.934;6.934;2023-01-13T04:48:07;7.67;;;1.53;;
5173;SDS011;2606;50.934;6.934;2023-01-13T04:50:33;9.40;;;2.00;;
5173;SDS011;2606;50.934;6.934;2023-01-13T04:52:59;15.07;;;2.00;;
5173;SDS011;2606;50.934;6.934;2023-01-13T04:55:25;11.47;;;3.10;;
5173;SDS011;2606;50.934;6.934;2023-01-13T04:57:51;19.80;;;2.00;;
5173;SDS011;2606;50.934;6.934;2023-01-13T05:00:18;4.67;;;1.70;;
5173;SDS011;2606;50.934;6.934;2023-01-13T05:02:45;7.73;;;1.70;;
5173;SDS011;2606;50.934;6.934;2023-01-13T05:05:13;8.00;;;1.17;;
5173;SDS011;2606;50.934;6.934;2023-01-13T05:07:38;14.03;;;2.20;;
5173;SDS011;2606;50.934;6.934;2023-01-13T05:10:04;9.20;;;2.07;;
5173;SDS011;2606;50.934;6.934;2023-01-13T05:12:30;6.43;;;1.67;;
5173;SDS011;2606;50.934;6.934;2023-01-13T05:15:14;5.10;;;1.23;;
5173;SDS011;2606;50.934;6.934;2023-01-13T05:17:59;11.03;;;1.20;;
5173;SDS011;2606;50.934;6.934;2023-01-13T05:20:26;8.33;;;1.77;;
5173;SDS011;2606;50.934;6.934;2023-01-13T05:22:52;7.73;;;1.27;;
5173;SDS011;2606;50.934;6.934;2023-01-13T05:25:37;10.07;;;3.10;;
5173;SDS011;2606;50.934;6.934;2023-01-13T05:28:04;7.63;;;2.13;;
5173;SDS011;2606;50.934;6.934;2023-01-13T05:30:32;10.10;;;1.60;;
5173;SDS011;2606;50.934;6.934;2023-01-13T05:33:01;5.30;;;1.80;;
5173;SDS011;2606;50.934;6.934;2023-01-13T05:35:27;7.67;;;2.03;;
5173;SDS011;2606;50.934;6.934;2023-01-13T05:37:53;3.50;;;1.50;;
5173;SDS011;2606;50.934;6.934;2023-01-13T05:40:19;8.13;;;1.83;;
5173;SDS011;2606;50.934;6.934;2023-01-13T05:43:04;18.20;;;2.40;;
5173;SDS011;2606;50.934;6.934;2023-01-13T05:45:43;3.90;;;1.30;;
5173;SDS011;2606;50.934;6.934;2023-01-13T05:51:03;6.47;;;1.57;;
5173;SDS011;2606;50.934;6.934;2023-01-13T05:53:30;9.90;;;3.10;;
5173;SDS011;2606;50.934;6.934;2023-01-13T05:55:56;8.03;;;1.80;;
5173;SDS011;2606;50.934;6.934;2023-01-13T05:58:23;9.23;;;2.63;;
5173;SDS011;2606;50.934;6.934;2023-01-13T06:00:50;7.80;;;2.43;;
5173;SDS011;2606;50.934;6.934;2023-01-13T06:03:16;7.37;;;2.30;;
5173;SDS011;2606;50.934;6.934;2023-01-13T06:05:44;10.27;;;3.10;;
5173;SDS011;2606;50.934;6.934;2023-01-13T06:08:10;2.30;;;1.20;;
5173;SDS011;2606;50.934;6.934;2023-01-13T06:10:36;3.93;;;1.50;;
5173;SDS011;2606;50.934;6.934;2023-01-13T06:13:02;6.20;;;2.23;;
5173;SDS011;2606;50.934;6.934;2023-01-13T06:15:28;10.80;;;1.83;;
5173;SDS011;2606;50.934;6.934;2023-01-13T06:17:57;6.63;;;1.40;;
5173;SDS011;2606;50.934;6.934;2023-01-13T06:20:23;1.40;;;1.00;;
5173;SDS011;2606;50.934;6.934;2023-01-13T06:22:49;2.97;;;1.70;;
5173;SDS011;2606;50.934;6.934;2023-01-13T06:25:25;7.07;;;1.40;;
5173;SDS011;2606;50.934;6.934;2023-01-13T06:27:58;3.77;;;1.20;;
5173;SDS011;2606;50.934;6.934;2023-01-13T06:30:26;5.63;;;1.35;;
5173;SDS011;2606;50.934;6.934;2023-01-13T06:32:54;5.65;;;1.13;;
5173;SDS011;2606;50.934;6.934;2023-01-13T06:35:24;6.77;;;1.40;;
5173;SDS011;2606;50.934;6.934;2023-01-13T06:37:53;2.17;;;0.90;;
5173;SDS011;2606;50.934;6.934;2023-01-13T06:40:21;4.50;;;1.20;;
5173;SDS011;2606;50.934;6.934;2023-01-13T06:42:48;7.53;;;1.10;;
5173;SDS011;2606;50.934;6.934;2023-01-13T06:45:33;5.70;;;1.30;;
5173;SDS011;2606;50.934;6.934;2023-01-13T06:47:59;12.23;;;1.20;;
5173;SDS011;2606;50.934;6.934;2023-01-13T06:50:25;12.47;;;1.50;;
5173;SDS011;2606;50.934;6.934;2023-01-13T06:52:52;12.70;;;1.50;;
5173;SDS011;2606;50.934;6.934;2023-01-13T06:55:17;5.23;;;1.30;;
5173;SDS011;2606;50.934;6.934;2023-01-13T06:57:50;5.30;;;1.33;;
5173;SDS011;2606;50.934;6.934;2023-01-13T07:00:17;5.17;;;0.93;;
5173;SDS011;2606;50.934;6.934;2023-01-13T07:02:43;5.30;;;1.00;;
5173;SDS011;2606;50.934;6.934;2023-01-13T07:05:09;2.80;;;0.90;;
5173;SDS011;2606;50.934;6.934;2023-01-13T07:07:34;2.97;;;1.07;;
5173;SDS011;2606;50.934;6.934;2023-01-13T07:10:00;5.50;;;1.30;;
5173;SDS011;2606;50.934;6.934;2023-01-13T07:12:26;10.33;;;1.40;;
5173;SDS011;2606;50.934;6.934;2023-01-13T07:14:51;7.53;;;1.30;;
5173;SDS011;2606;50.934;6.934;2023-01-13T07:17:36;5.73;;;1.27;;
5173;SDS011;2606;50.934;6.934;2023-01-13T07:20:01;3.90;;;1.53;;
5173;SDS011;2606;50.934;6.934;2023-01-13T07:22:27;3.13;;;0.93;;
5173;SDS011;2606;50.934;6.934;2023-01-13T07:24:53;5.17;;;1.40;;
5173;SDS011;2606;50.934;6.934;2023-01-13T07:27:18;0.80;;;0.60;;
5173;SDS011;2606;50.934;6.934;2023-01-13T07:29:44;9.23;;;1.40;;
5173;SDS011;2606;50.934;6.934;2023-01-13T07:32:09;4.73;;;0.90;;
5173;SDS011;2606;50.934;6.934;2023-01-13T07:34:35;2.43;;;0.83;;
5173;SDS011;2606;50.934;6.934;2023-01-13T07:37:00;1.70;;;0.90;;
5173;SDS011;2606;50.934;6.934;2023-01-13T07:39:26;1.50;;;1.00;;
5173;SDS011;2606;50.934;6.934;2023-01-13T07:41:52;2.90;;;0.80;;
5173;SDS011;2606;50.934;6.934;2023-01-13T07:44:40;1.10;;;0.60;;
5173;SDS011;2606;50.934;6.934;2023-01-13T07:47:06;5.97;;;0.77;;
5173;SDS011;2606;50.934;6.934;2023-01-13T07:49:34;1.90;;;0.80;;
5173;SDS011;2606;50.934;6.934;2023-01-13T07:52:00;2.67;;;1.47;;
5173;SDS011;2606;50.934;6.934;2023-01-13T07:54:26;3.27;;;1.20;;
5173;SDS011;2606;50.934;6.934;2023-01-13T07:56:51;1.60;;;0.83;;
5173;SDS011;2606;50.934;6.934;2023-01-13T07:59:17;1.77;;;1.03;;
5173;SDS011;2606;50.934;6.934;2023-01-13T08:01:42;7.43;;;0.87;;
5173;SDS011;2606;50.934;6.934;2023-01-13T08:04:08;3.27;;;1.00;;
5173;SDS011;2606;50.934;6.934;2023-01-13T08:06:33;9.63;;;1.00;;
5173;SDS011;2606;50.934;6.934;2023-01-13T08:09:00;1.23;;;1.00;;
5173;SDS011;2606;50.934;6.934;2023-01-13T08:11:26;2.37;;;0.70;;
5173;SDS011;2606;50.934;6.934;2023-01-13T08:13:55;2.83;;;1.70;;
5173;SDS011;2606;50.934;6.934;2023-01-13T08:16:21;7.30;;;1.07;;
5173;SDS011;2606;50.934;6.934;2023-01-13T08:18:47;3.57;;;1.70;;
5173;SDS011;2606;50.934;6.934;2023-01-13T08:21:13;4.97;;;1.20;;
5173;SDS011;2606;50.934;6.934;2023-01-13T08:23:40;5.03;;;1.17;;
5173;SDS011;2606;50.934;6.934;2023-01-13T08:26:09;2.30;;;1.10;;
5173;SDS011;2606;50.934;6.934;2023-01-13T08:28:37;3.67;;;1.30;;
5173;SDS011;2606;50.934;6.934;2023-01-13T08:31:08;5.17;;;1.17;;
5173;SDS011;2606;50.934;6.934;2023-01-13T08:33:36;4.40;;;1.43;;
5173;SDS011;2606;50.934;6.934;2023-01-13T08:36:05;4.90;;;1.27;;
5173;SDS011;2606;50.934;6.934;2023-01-13T08:38:32;3.60;;;1.10;;
5173;SDS011;2606;50.934;6.934;2023-01-13T08:40:59;4.10;;;1.17;;
5173;SDS011;2606;50.934;6.934;2023-01-13T08:43:25;4.87;;;1.17;;
5173;SDS011;2606;50.934;6.934;2023-01-13T08:46:00;8.20;;;1.97;;
5173;SDS011;2606;50.934;6.934;2023-01-13T08:48:28;4.40;;;1.43;;
5173;SDS011;2606;50.934;6.934;2023-01-13T08:51:00;5.77;;;1.53;;
5173;SDS011;2606;50.934;6.934;2023-01-13T08:53:30;11.20;;;2.10;;
5173;SDS011;2606;50.934;6.934;2023-01-13T08:55:55;6.40;;;1.57;;
5173;SDS011;2606;50.934;6.934;2023-01-13T08:58:21;8.10;;;2.57;;
5173;SDS011;2606;50.934;6.934;2023-01-13T09:00:46;5.03;;;1.90;;
5173;SDS011;2606;50.934;6.934;2023-01-13T09:03:12;4.80;;;1.77;;
5173;SDS011;2606;50.934;6.934;2023-01-13T09:05:37;7.53;;;1.60;;
5173;SDS011;2606;50.934;6.934;2023-01-13T09:08:03;10.27;;;2.10;;
5173;SDS011;2606;50.934;6.934;2023-01-13T09:10:29;5.57;;;1.60;;
5173;SDS011;2606;50.934;6.934;2023-01-13T09:12:54;7.63;;;1.37;;
5173;SDS011;2606;50.934;6.934;2023-01-13T09:15:40;9.07;;;1.73;;
5173;SDS011;2606;50.934;6.934;2023-01-13T09:18:07;7.57;;;1.37;;
5173;SDS011;2606;50.934;6.934;2023-01-13T09:20:33;7.93;;;1.50;;
5173;SDS011;2606;50.934;6.934;2023-01-13T09:22:58;8.33;;;2.27;;
5173;SDS011;2606;50.934;6.934;2023-01-13T09:25:24;5.60;;;1.67;;
5173;SDS011;2606;50.934;6.934;2023-01-13T09:27:50;8.13;;;1.60;;
5173;SDS011;2606;50.934;6.934;2023-01-13T09:30:15;3.90;;;1.60;;
5173;SDS011;2606;50.934;6.934;2023-01-13T09:32:41;8.70;;;1.80;;
5173;SDS011;2606;50.934;6.934;2023-01-13T09:35:07;3.57;;;1.30;;
5173;SDS011;2606;50.934;6.934;2023-01-13T09:37:37;9.40;;;2.03;;
5173;SDS011;2606;50.934;6.934;2023-01-13T09:40:05;7.97;;;1.50;;
5173;SDS011;2606;50.934;6.934;2023-01-13T09:42:51;6.17;;;1.10;;
5173;SDS011;2606;50.934;6.934;2023-01-13T09:45:46;10.27;;;1.63;;
5173;SDS011;2606;50.934;6.934;2023-01-13T09:53:26;11.17;;;2.70;;
5173;SDS011;2606;50.934;6.934;2023-01-13T09:55:54;9.43;;;2.03;;
5173;SDS011;2606;50.934;6.934;2023-01-13T09:58:20;13.40;;;2.00;;
5173;SDS011;2606;50.934;6.934;2023-01-13T10:03:29;4.27;;;1.47;;
5173;SDS011;2606;50.934;6.934;2023-01-13T10:08:43;9.63;;;1.67;;
5173;SDS011;2606;50.934;6.934;2023-01-13T10:11:42;11.93;;;1.83;;
5173;SDS011;2606;50.934;6.934;2023-01-13T10:14:43;5.33;;;1.87;;
5173;SDS011;2606;50.934;6.934;2023-01-13T10:28:12;7.53;;;1.50;;
5173;SDS011;2606;50.934;6.934;2023-01-13T10:30:41;6.57;;;2.23;;
5173;SDS011;2606;50.934;6.934;2023-01-13T10:33:12;10.03;;;1.67;;
5173;SDS011;2606;50.934;6.934;2023-01-13T10:38:29;8.23;;;1.73;;
5173;SDS011;2606;50.934;6.934;2023-01-13T10:41:07;16.40;;;1.93;;
5173;SDS011;2606;50.934;6.934;2023-01-13T10:43:44;8.77;;;2.00;;
5173;SDS011;2606;50.934;6.934;2023-01-13T10:46:16;7.03;;;1.47;;
5173;SDS011;2606;50.934;6.934;2023-01-13T10:54:13;6.50;;;1.83;;
5173;SDS011;2606;50.934;6.934;2023-01-13T10:56:35;10.70;;;1.93;;
5173;SDS011;2606;50.934;6.934;2023-01-13T11:01:33;12.97;;;1.87;;
5173;SDS011;2606;50.934;6.934;2023-01-13T11:03:59;7.00;;;1.30;;
5173;SDS011;2606;50.934;6.934;2023-01-13T11:06:29;14.00;;;2.40;;
5173;SDS011;2606;50.934;6.934;2023-01-13T11:08:57;14.13;;;1.77;;
5173;SDS011;2606;50.934;6.934;2023-01-13T11:11:24;7.20;;;1.50;;
5173;SDS011;2606;50.934;6.934;2023-01-13T11:13:51;6.23;;;1.53;;
5173;SDS011;2606;50.934;6.934;2023-01-13T11:16:38;4.97;;;1.30;;
5173;SDS011;2606;50.934;6.934;2023-01-13T11:19:08;9.10;;;1.80;;
5173;SDS011;2606;50.934;6.934;2023-01-13T11:26:56;11.65;;;2.05;;
5173;SDS011;2606;50.934;6.934;2023-01-13T11:29:35;12.40;;;2.20;;
5173;SDS011;2606;50.934;6.934;2023-01-13T11:34:39;9.80;;;2.20;;
5173;SDS011;2606;50.934;6.934;2023-01-13T11:37:11;15.00;;;2.20;;
5173;SDS011;2606;50.934;6.934;2023-01-13T11:40:09;8.47;;;1.80;;
5173;SDS011;2606;50.934;6.934;2023-01-13T11:42:40;7.40;;;1.63;;
5173;SDS011;2606;50.934;6.934;2023-01-13T11:45:32;8.50;;;1.80;;
5173;SDS011;2606;50.934;6.934;2023-01-13T11:48:04;7.10;;;1.47;;
5173;SDS011;2606;50.934;6.934;2023-01-13T11:50:50;10.20;;;2.03;;
5173;SDS011;2606;50.934;6.934;2023-01-13T12:02:22;8.43;;;2.13;;
5173;SDS011;2606;50.934;6.934;2023-01-13T12:10:45;6.00;;;1.27;;
5173;SDS011;2606;50.934;6.934;2023-01-13T12:13:38;3.13;;;1.10;;
5173;SDS011;2606;50.934;6.934;2023-01-13T12:21:39;5.77;;;1.23;;
5173;SDS011;2606;50.934;6.934;2023-01-13T12:24:24;4.83;;;0.90;;
5173;SDS011;2606;50.934;6.934;2023-01-13T12:27:14;4.90;;;1.47;;
5173;SDS011;2606;50.934;6.934;2023-01-13T12:30:01;8.40;;;1.23;;
5173;SDS011;2606;50.934;6.934;2023-01-13T12:32:37;4.03;;;1.43;;
5173;SDS011;2606;50.934;6.934;2023-01-13T12:35:25;6.07;;;1.80;;
5173;SDS011;2606;50.934;6.934;2023-01-13T12:38:03;5.47;;;1.23;;
5173;SDS011;2606;50.934;6.934;2023-01-13T12:40:40;6.73;;;1.17;;
5173;SDS011;2606;50.934;6.934;2023-01-13T12:54:00;15.27;;;2.83;;
5173;SDS011;2606;50.934;6.934;2023-01-13T12:56:39;4.40;;;1.60;;
5173;SDS011;2606;50.934;6.934;2023-01-13T13:01:46;10.67;;;1.80;;
5173;SDS011;2606;50.934;6.934;2023-01-13T13:04:43;6.10;;;1.00;;
5173;SDS011;2606;50.934;6.934;2023-01-13T13:09:56;10.80;;;1.87;;
5173;SDS011;2606;50.934;6.934;2023-01-13T13:15:29;7.97;;;1.80;;
5173;SDS011;2606;50.934;6.934;2023-01-13T13:34:45;10.10;;;2.00;;
5173;SDS011;2606;50.934;6.934;2023-01-13T13:40:25;4.37;;;1.00;;
5173;SDS011;2606;50.934;6.934;2023-01-13T13:43:13;6.00;;;2.57;;
5173;SDS011;2606;50.934;6.934;2023-01-13T13:45:57;6.17;;;1.83;;
5173;SDS011;2606;50.934;6.934;2023-01-13T13:48:53;8.30;;;3.10;;
5173;SDS011;2606;50.934;6.934;2023-01-13T13:51:29;14.33;;;2.00;;
5173;SDS011;2606;50.934;6.934;2023-01-13T13:54:01;11.20;;;1.60;;
5173;SDS011;2606;50.934;6.934;2023-01-13T13:56:28;6.40;;;1.60;;
5173;SDS011;2606;50.934;6.934;2023-01-13T13:58:59;8.67;;;2.17;;
5173;SDS011;2606;50.934;6.934;2023-01-13T14:01:26;7.80;;;1.47;;
5173;SDS011;2606;50.934;6.934;2023-01-13T14:04:10;7.23;;;1.70;;
5173;SDS011;2606;50.934;6.934;2023-01-13T14:09:38;8.80;;;1.73;;
5173;SDS011;2606;50.934;6.934;2023-01-13T14:12:14;8.43;;;1.87;;
5173;SDS011;2606;50.934;6.934;2023-01-13T14:14:42;9.03;;;1.93;;
5173;SDS011;2606;50.934;6.934;2023-01-13T14:17:17;6.20;;;1.60;;
5173;SDS011;2606;50.934;6.934;2023-01-13T14:19:51;12.17;;;1.80;;
5173;SDS011;2606;50.934;6.934;2023-01-13T14:22:19;6.00;;;1.70;;
5173;SDS011;2606;50.934;6.934;2023-01-13T14:24:45;9.77;;;2.00;;
5173;SDS011;2606;50.934;6.934;2023-01-13T14:27:22;8.10;;;2.07;;
5173;SDS011;2606;50.934;6.934;2023-01-13T14:29:51;3.37;;;1.17;;
5173;SDS011;2606;50.934;6.934;2023-01-13T14:32:19;11.33;;;1.60;;
5173;SDS011;2606;50.934;6.934;2023-01-13T14:34:46;6.20;;;1.40;;
5173;SDS011;2606;50.934;6.934;2023-01-13T14:42:57;9.30;;;1.80;;
5173;SDS011;2606;50.934;6.934;2023-01-13T14:45:24;6.83;;;1.70;;
5173;SDS011;2606;50.934;6.934;2023-01-13T14:47:51;8.30;;;1.77;;
5173;SDS011;2606;50.934;6.934;2023-01-13T14:50:19;4.30;;;1.30;;
5173;SDS011;2606;50.934;6.934;2023-01-13T14:52:52;6.83;;;1.40;;
5173;SDS011;2606;50.934;6.934;2023-01-13T14:55:25;6.63;;;2.20;;
5173;SDS011;2606;50.934;6.934;2023-01-13T15:00:44;10.53;;;1.60;;
5173;SDS011;2606;50.934;6.934;2023-01-13T15:03:13;13.77;;;1.60;;
5173;SDS011;2606;50.934;6.934;2023-01-13T15:05:44;4.87;;;1.10;;
5173;SDS011;2606;50.934;6.934;2023-01-13T15:08:21;14.20;;;1.80;;
5173;SDS011;2606;50.934;6.934;2023-01-13T15:11:00;19.53;;;2.30;;
5173;SDS011;2606;50.934;6.934;2023-01-13T15:13:41;7.73;;;1.80;;
5173;SDS011;2606;50.934;6.934;2023-01-13T15:16:13;7.50;;;1.63;;
5173;SDS011;2606;50.934;6.934;2023-01-13T15:18:45;14.30;;;2.57;;
5173;SDS011;2606;50.934;6.934;2023-01-13T15:21:11;7.70;;;1.63;;
5173;SDS011;2606;50.934;6.934;2023-01-13T15:23:37;8.97;;;1.90;;
5173;SDS011;2606;50.934;6.934;2023-01-13T15:26:10;6.93;;;2.17;;
5173;SDS011;2606;50.934;6.934;2023-01-13T15:28:42;10.20;;;2.30;;
5173;SDS011;2606;50.934;6.934;2023-01-13T15:31:07;7.43;;;2.30;;
5173;SDS011;2606;50.934;6.934;2023-01-13T15:33:33;10.13;;;2.07;;
5173;SDS011;2606;50.934;6.934;2023-01-13T15:35:59;14.20;;;2.23;;
5173;SDS011;2606;50.934;6.934;2023-01-13T15:38:25;11.27;;;2.40;;
5173;SDS011;2606;50.934;6.934;2023-01-13T15:40:51;10.20;;;2.27;;
5173;SDS011;2606;50.934;6.934;2023-01-13T15:43:18;4.03;;;1.70;;
5173;SDS011;2606;50.934;6.934;2023-01-13T15:46:09;11.33;;;2.50;;
5173;SDS011;2606;50.934;6.934;2023-01-13T15:49:02;9.43;;;3.00;;
5173;SDS011;2606;50.934;6.934;2023-01-13T15:51:40;4.03;;;2.03;;
5173;SDS011;2606;50.934;6.934;2023-01-13T15:54:07;11.30;;;1.60;;
5173;SDS011;2606;50.934;6.934;2023-01-13T15:56:33;13.93;;;4.67;;
5173;SDS011;2606;50.934;6.934;2023-01-13T15:59:01;12.70;;;2.47;;
5173;SDS011;2606;50.934;6.934;2023-01-13T16:01:28;11.83;;;2.37;;
5173;SDS011;2606;50.934;6.934;2023-01-13T16:03:53;11.37;;;3.00;;
5173;SDS011;2606;50.934;6.934;2023-01-13T16:06:20;8.83;;;2.23;;
5173;SDS011;2606;50.934;6.934;2023-01-13T16:08:53;8.80;;;1.70;;
5173;SDS011;2606;50.934;6.934;2023-01-13T16:11:18;12.13;;;2.70;;
5173;SDS011;2606;50.934;6.934;2023-01-13T16:13:44;11.63;;;2.33;;
5173;SDS011;2606;50.934;6.934;2023-01-13T16:16:13;9.77;;;2.10;;
5173;SDS011;2606;50.934;6.934;2023-01-13T16:18:45;13.10;;;1.70;;
5173;SDS011;2606;50.934;6.934;2023-01-13T16:21:12;13.37;;;2.10;;
5173;SDS011;2606;50.934;6.934;2023-01-13T16:23:38;7.70;;;2.10;;
5173;SDS011;2606;50.934;6.934;2023-01-13T16:26:04;12.83;;;2.10;;
5173;SDS011;2606;50.934;6.934;2023-01-13T16:28:31;10.67;;;2.03;;
5173;SDS011;2606;50.934;6.934;2023-01-13T16:30:59;10.50;;;1.73;;
5173;SDS011;2606;50.934;6.934;2023-01-13T16:33:39;15.33;;;2.83;;
5173;SDS011;2606;50.934;6.934;2023-01-13T16:36:09;22.63;;;2.07;;
5173;SDS011;2606;50.934;6.934;2023-01-13T16:38:38;11.10;;;2.07;;
5173;SDS011;2606;50.934;6.934;2023-01-13T16:41:03;13.40;;;1.90;;
5173;SDS011;2606;50.934;6.934;2023-01-13T16:43:29;9.47;;;2.00;;
5173;SDS011;2606;50.934;6.934;2023-01-13T16:45:54;12.30;;;2.63;;
5173;SDS011;2606;50.934;6.934;2023-01-13T16:48:20;9.63;;;2.40;;
5173;SDS011;2606;50.934;6.934;2023-01-13T16:50:46;11.30;;;2.17;;
5173;SDS011;2606;50.934;6.934;2023-01-13T16:53:12;10.60;;;1.87;;
5173;SDS011;2606;50.934;6.934;2023-01-13T16:55:38;5.13;;;2.10;;
5173;SDS011;2606;50.934;6.934;2023-01-13T16:58:05;13.90;;;2.03;;
5173;SDS011;2606;50.934;6.934;2023-01-13T17:00:31;11.23;;;2.03;;
5173;SDS011;2606;50.934;6.934;2023-01-13T17:02:57;7.20;;;1.93;;
5173;SDS011;2606;50.934;6.934;2023-01-13T17:05:25;6.73;;;2.03;;
5173;SDS011;2606;50.934;6.934;2023-01-13T17:07:50;9.93;;;1.70;;
5173;SDS011;2606;50.934;6.934;2023-01-13T17:10:17;9.80;;;1.90;;
5173;SDS011;2606;50.934;6.934;2023-01-13T17:12:45;11.80;;;2.33;;
5173;SDS011;2606;50.934;6.934;2023-01-13T17:15:11;5.80;;;1.40;;
5173;SDS011;2606;50.934;6.934;2023-01-13T17:17:39;9.47;;;1.57;;
5173;SDS011;2606;50.934;6.934;2023-01-13T17:20:06;10.00;;;2.30;;
5173;SDS011;2606;50.934;6.934;2023-01-13T17:22:33;6.43;;;1.53;;
5173;SDS011;2606;50.934;6.934;2023-01-13T17:24:59;3.53;;;1.63;;
5173;SDS011;2606;50.934;6.934;2023-01-13T17:27:24;6.43;;;2.20;;
5173;SDS011;2606;50.934;6.934;2023-01-13T17:29:50;10.53;;;3.40;;
5173;SDS011;2606;50.934;6.934;2023-01-13T17:32:16;12.53;;;3.07;;
5173;SDS011;2606;50.934;6.934;2023-01-13T17:34:43;6.53;;;1.60;;
5173;SDS011;2606;50.934;6.934;2023-01-13T17:37:09;13.07;;;2.27;;
5173;SDS011;2606;50.934;6.934;2023-01-13T17:39:38;3.07;;;1.40;;
5173;SDS011;2606;50.934;6.934;2023-01-13T17:42:04;7.90;;;2.57;;
5173;SDS011;2606;50.934;6.934;2023-01-13T17:44:30;7.60;;;1.83;;
5173;SDS011;2606;50.934;6.934;2023-01-13T17:46:56;15.93;;;2.40;;
5173;SDS011;2606;50.934;6.934;2023-01-13T17:49:21;12.33;;;1.87;;
5173;SDS011;2606;50.934;6.934;2023-01-13T17:51:47;10.10;;;2.03;;
5173;SDS011;2606;50.934;6.934;2023-01-13T17:54:14;6.60;;;1.93;;
5173;SDS011;2606;50.934;6.934;2023-01-13T17:56:41;12.90;;;2.00;;